createdAt,value
2022-09-01T00:00:30.679Z,8.70
2022-09-01T00:03:00.007Z,9.65
2022-09-01T00:05:28.089Z,13.23
2022-09-01T00:07:58.304Z,14.40
2022-09-01T00:10:28.729Z,13.88
2022-09-01T00:12:56.577Z,13.83
2022-09-01T00:15:24.736Z,14.82
2022-09-01T00:17:55.512Z,14.65
2022-09-01T00:20:28.189Z,15.07
2022-09-01T00:22:56.598Z,16.40
2022-09-01T00:25:25.038Z,15.50
2022-09-01T00:27:53.146Z,16.70
2022-09-01T00:30:22.412Z,16.95
2022-09-01T00:32:50.425Z,16.00
2022-09-01T00:35:20.609Z,16.25
2022-09-01T00:37:49.895Z,13.48
2022-09-01T00:40:19.637Z,12.00
2022-09-01T00:42:49.047Z,13.02
2022-09-01T00:45:17.079Z,12.70
2022-09-01T00:47:45.244Z,13.60
2022-09-01T00:50:18.275Z,15.70
2022-09-01T00:52:51.131Z,16.23
2022-09-01T00:55:24.596Z,16.95
2022-09-01T00:57:52.686Z,15.48
2022-09-01T01:00:24.951Z,14.85
2022-09-01T01:02:56.630Z,15.00
2022-09-01T01:05:27.989Z,14.57
2022-09-01T01:07:56.947Z,13.77
2022-09-01T01:10:33.299Z,15.48
2022-09-01T01:13:02.163Z,15.02
2022-09-01T01:15:30.683Z,14.60
2022-09-01T01:17:58.934Z,14.60
2022-09-01T01:20:48.766Z,13.65
2022-09-01T01:23:23.277Z,12.82
2022-09-01T01:25:57.347Z,14.52
2022-09-01T01:28:31.004Z,12.75
2022-09-01T01:31:02.005Z,13.15
2022-09-01T01:33:33.835Z,12.60
2022-09-01T01:36:03.682Z,13.27
2022-09-01T01:38:36.032Z,13.20
2022-09-01T01:41:06.301Z,13.80
2022-09-01T01:43:37.679Z,13.30
2022-09-01T01:46:08.264Z,13.82
2022-09-01T01:48:41.587Z,13.32
2022-09-01T01:51:13.970Z,13.70
2022-09-01T01:53:42.041Z,12.63
2022-09-01T01:56:14.216Z,14.35
2022-09-01T01:58:42.310Z,13.77
2022-09-01T02:01:13.199Z,13.00
2022-09-01T02:03:41.421Z,12.82
2022-09-01T02:06:12.696Z,12.50
2022-09-01T02:08:42.199Z,11.20
2022-09-01T02:11:11.051Z,12.13
2022-09-01T02:13:40.389Z,10.80
2022-09-01T02:16:12.944Z,14.25
2022-09-01T02:18:44.369Z,12.88
2022-09-01T02:21:18.293Z,13.65
2022-09-01T02:23:48.700Z,13.43
2022-09-01T02:26:19.106Z,13.23
2022-09-01T02:28:55.234Z,13.38
2022-09-01T02:31:28.077Z,13.80
2022-09-01T02:33:57.334Z,12.25
2022-09-01T02:36:26.984Z,11.10
2022-09-01T02:38:56.568Z,12.02
2022-09-01T02:41:27.196Z,12.23
2022-09-01T02:43:57.203Z,9.68
2022-09-01T02:46:29.548Z,11.63
2022-09-01T02:48:59.820Z,10.90
2022-09-01T02:51:27.823Z,13.27
2022-09-01T02:53:56.007Z,12.95
2022-09-01T02:56:27.498Z,13.68
2022-09-01T02:58:57.524Z,14.02
2022-09-01T03:01:29.430Z,13.70
2022-09-01T03:04:01.661Z,13.23
2022-09-01T03:06:34.408Z,14.10
2022-09-01T03:09:04.458Z,14.15
2022-09-01T03:11:37.022Z,13.63
2022-09-01T03:14:07.706Z,13.43
2022-09-01T03:16:39.293Z,15.13
2022-09-01T03:19:09.504Z,17.17
2022-09-01T03:21:43.320Z,19.38
2022-09-01T03:24:15.262Z,18.17
2022-09-01T03:26:44.374Z,18.85
2022-09-01T03:29:15.229Z,17.83
2022-09-01T03:31:43.854Z,17.55
2022-09-01T03:34:12.612Z,18.23
2022-09-01T03:36:50.310Z,19.07
2022-09-01T03:39:25.273Z,19.25
2022-09-01T03:41:55.348Z,19.27
2022-09-01T03:44:24.743Z,20.40
2022-09-01T03:46:52.917Z,20.23
2022-09-01T03:49:27.786Z,19.48
2022-09-01T03:51:58.704Z,17.65
2022-09-01T03:54:30.526Z,12.23
2022-09-01T03:57:00.775Z,15.98
2022-09-01T03:59:31.675Z,10.70
2022-09-01T04:02:00.446Z,10.00
2022-09-01T04:04:31.461Z,12.45
2022-09-01T04:07:02.467Z,10.75
2022-09-01T04:09:33.744Z,9.30
2022-09-01T04:12:01.748Z,12.55
2022-09-01T04:14:32.584Z,13.57
2022-09-01T04:17:30.376Z,9.93
2022-09-01T04:19:58.926Z,12.15
2022-09-01T04:22:32.030Z,15.25
2022-09-01T04:25:00.476Z,14.68
2022-09-01T04:27:29.015Z,16.60
2022-09-01T04:29:58.760Z,16.25
2022-09-01T04:32:30.793Z,18.88
2022-09-01T04:35:02.320Z,18.67
2022-09-01T04:37:31.016Z,18.63
2022-09-01T04:40:01.997Z,16.90
2022-09-01T04:42:32.874Z,18.52
2022-09-01T04:45:10.344Z,16.10
2022-09-01T04:47:42.193Z,17.25
2022-09-01T04:50:17.134Z,17.50
2022-09-01T04:53:00.238Z,19.40
2022-09-01T04:55:32.051Z,19.08
2022-09-01T04:58:08.369Z,18.13
2022-09-01T05:00:40.517Z,17.92
2022-09-01T05:03:10.338Z,16.77
2022-09-01T05:06:15.114Z,16.65
2022-09-01T05:08:48.589Z,18.40
2022-09-01T05:11:29.053Z,18.67
2022-09-01T05:14:05.276Z,17.73
2022-09-01T05:16:36.284Z,19.83
2022-09-01T05:19:05.588Z,19.00
2022-09-01T05:21:40.248Z,17.45
2022-09-01T05:24:09.059Z,18.27
2022-09-01T05:26:38.534Z,18.30
2022-09-01T05:29:10.615Z,19.57
2022-09-01T05:31:44.985Z,20.37
2022-09-01T05:34:15.287Z,14.77
2022-09-01T05:36:46.152Z,18.00
2022-09-01T05:39:14.879Z,16.50
2022-09-01T05:41:43.677Z,18.25
2022-09-01T05:44:14.274Z,18.97
2022-09-01T05:46:45.056Z,18.33
2022-09-01T05:49:16.921Z,18.48
2022-09-01T05:51:51.617Z,18.63
2022-09-01T05:54:27.360Z,17.02
2022-09-01T05:57:12.668Z,17.38
2022-09-01T05:59:53.864Z,17.52
2022-09-01T06:02:26.325Z,19.50
2022-09-01T06:04:57.421Z,19.63
2022-09-01T06:07:30.667Z,19.17
2022-09-01T06:10:02.071Z,16.20
2022-09-01T06:12:30.284Z,14.93
2022-09-01T06:14:59.046Z,18.83
2022-09-01T06:17:30.758Z,18.80
2022-09-01T06:20:10.726Z,13.60
2022-09-01T06:22:42.930Z,15.07
2022-09-01T06:25:11.765Z,12.38
2022-09-01T06:27:44.832Z,13.55
2022-09-01T06:30:20.175Z,14.85
2022-09-01T06:32:57.570Z,15.77
2022-09-01T06:35:29.578Z,19.40
2022-09-01T06:38:00.000Z,17.03
2022-09-01T06:41:01.548Z,16.88
2022-09-01T06:43:30.869Z,17.38
2022-09-01T06:46:02.780Z,19.50
2022-09-01T06:48:32.538Z,15.65
2022-09-01T06:51:18.417Z,17.85
2022-09-01T06:53:56.525Z,14.40
2022-09-01T06:56:32.302Z,17.53
2022-09-01T06:59:04.168Z,11.93
2022-09-01T07:01:32.835Z,16.48
2022-09-01T07:04:03.055Z,13.63
2022-09-01T07:06:59.700Z,14.18
2022-09-01T07:09:46.969Z,16.05
2022-09-01T07:12:25.906Z,19.40
2022-09-01T07:17:43.621Z,17.13
2022-09-01T07:20:30.678Z,18.20
2022-09-01T07:23:04.706Z,15.07
2022-09-01T07:28:41.935Z,18.05
2022-09-01T07:43:08.415Z,13.10
2022-09-01T07:49:29.470Z,14.20
2022-09-01T07:51:55.333Z,12.98
2022-09-01T07:54:25.310Z,13.25
2022-09-01T07:56:55.609Z,14.27
2022-09-01T07:59:26.707Z,12.63
2022-09-01T08:02:05.633Z,14.10
2022-09-01T08:04:34.092Z,12.77
2022-09-01T08:07:03.090Z,11.35
2022-09-01T08:09:37.463Z,12.07
2022-09-01T08:12:09.370Z,11.77
2022-09-01T08:17:53.740Z,10.32
2022-09-01T08:20:24.923Z,11.80
2022-09-01T08:22:56.500Z,11.95
2022-09-01T08:25:34.410Z,11.73
2022-09-01T08:28:03.355Z,10.90
2022-09-01T08:30:32.618Z,11.43
2022-09-01T08:33:17.789Z,10.50
2022-09-01T08:35:50.077Z,10.65
2022-09-01T08:38:19.956Z,10.33
2022-09-01T08:40:56.846Z,8.25
2022-09-01T08:43:46.545Z,7.30
2022-09-01T08:46:20.684Z,9.10
2022-09-01T08:52:25.545Z,7.57
2022-09-01T08:54:59.777Z,7.07
2022-09-01T08:57:34.587Z,6.47
2022-09-01T09:00:24.361Z,6.60
2022-09-01T09:03:07.418Z,6.05
2022-09-01T09:05:50.871Z,4.80
2022-09-01T09:08:45.932Z,4.30
2022-09-01T09:11:28.022Z,4.30
2022-09-01T09:14:07.511Z,4.57
2022-09-01T09:16:40.834Z,3.97
2022-09-01T09:19:12.424Z,4.07
2022-09-01T09:21:42.397Z,6.05
2022-09-01T09:24:19.324Z,6.18
2022-09-01T09:26:50.923Z,5.80
2022-09-01T09:29:22.031Z,5.50
2022-09-01T09:32:44.215Z,4.70
2022-09-01T09:35:20.195Z,4.93
2022-09-01T09:37:48.475Z,5.07
2022-09-01T09:40:22.451Z,5.20
2022-09-01T09:43:06.791Z,5.80
2022-09-01T09:45:41.652Z,5.35
2022-09-01T09:48:27.165Z,5.43
2022-09-01T09:50:55.138Z,5.03
2022-09-01T09:53:29.591Z,5.03
2022-09-01T09:56:05.556Z,5.50
2022-09-01T09:58:38.335Z,4.68
2022-09-01T10:01:17.497Z,5.30
2022-09-01T10:03:50.505Z,5.20
2022-09-01T10:06:33.092Z,5.18
2022-09-01T10:09:01.849Z,4.67
2022-09-01T10:11:35.646Z,4.82
2022-09-01T10:14:08.014Z,5.03
2022-09-01T10:16:42.549Z,4.80
2022-09-01T10:19:16.348Z,4.68
2022-09-01T10:21:46.384Z,4.50
2022-09-01T10:24:22.347Z,4.53
2022-09-01T10:26:58.398Z,4.53
2022-09-01T10:29:34.867Z,4.22
2022-09-01T10:32:31.452Z,3.83
2022-09-01T10:34:59.754Z,4.00
2022-09-01T10:37:28.654Z,4.30
2022-09-01T10:40:20.583Z,4.07
2022-09-01T10:42:53.946Z,4.30
2022-09-01T10:45:33.766Z,4.38
2022-09-01T10:48:32.507Z,3.70
2022-09-01T10:51:51.565Z,3.70
2022-09-01T10:54:57.983Z,3.72
2022-09-01T10:57:42.267Z,3.58
2022-09-01T11:01:40.298Z,3.67
2022-09-01T11:03:54.374Z,3.63
2022-09-01T11:07:12.327Z,3.55
2022-09-01T11:09:42.892Z,3.42
2022-09-01T11:12:48.961Z,3.65
2022-09-01T11:15:38.993Z,3.70
2022-09-01T11:18:14.559Z,3.40
2022-09-01T11:20:50.954Z,3.80
2022-09-01T11:23:27.719Z,3.65
2022-09-01T11:28:45.649Z,3.45
2022-09-01T11:31:27.943Z,3.47
2022-09-01T11:34:19.139Z,3.50
2022-09-01T11:36:54.052Z,3.33
2022-09-01T11:39:42.258Z,3.20
2022-09-01T11:42:20.080Z,3.30
2022-09-01T11:44:52.925Z,3.07
2022-09-01T11:47:26.595Z,2.80
2022-09-01T11:49:58.211Z,2.70
2022-09-01T11:52:32.362Z,3.25
2022-09-01T11:55:03.559Z,3.20
2022-09-01T11:57:34.586Z,3.50
2022-09-01T12:00:06.396Z,3.33
2022-09-01T12:02:45.983Z,2.77
2022-09-01T12:05:28.567Z,3.20
2022-09-01T12:07:59.248Z,3.33
2022-09-01T12:10:33.763Z,3.20
2022-09-01T12:13:04.982Z,3.10
2022-09-01T12:15:35.139Z,2.90
2022-09-01T12:18:21.108Z,3.05
2022-09-01T12:20:51.696Z,3.10
2022-09-01T12:23:27.415Z,2.85
2022-09-01T12:25:57.367Z,2.90
2022-09-01T12:28:30.459Z,3.10
2022-09-01T12:31:00.518Z,2.80
2022-09-01T12:33:31.737Z,3.17
2022-09-01T12:36:26.293Z,3.17
2022-09-01T12:38:57.928Z,3.00
2022-09-01T12:41:37.688Z,2.87
2022-09-01T12:44:30.720Z,2.80
2022-09-01T12:47:00.706Z,2.80
2022-09-01T12:49:45.367Z,2.95
2022-09-01T12:52:26.115Z,2.83
2022-09-01T12:55:47.406Z,2.85
2022-09-01T12:58:04.929Z,3.03
2022-09-01T13:00:39.716Z,2.83
2022-09-01T13:03:14.147Z,2.60
2022-09-01T13:05:44.114Z,3.10
2022-09-01T13:08:14.859Z,3.13
2022-09-01T13:10:46.464Z,3.40
2022-09-01T13:13:16.054Z,3.20
2022-09-01T13:15:48.133Z,3.00
2022-09-01T13:18:16.669Z,2.92
2022-09-01T13:20:44.934Z,2.80
2022-09-01T13:23:13.137Z,2.65
2022-09-01T13:25:44.312Z,2.30
2022-09-01T13:28:14.331Z,2.92
2022-09-01T13:30:43.491Z,2.63
2022-09-01T13:33:20.626Z,2.73
2022-09-01T13:35:51.123Z,2.83
2022-09-01T13:38:20.533Z,2.80
2022-09-01T13:40:50.105Z,2.70
2022-09-01T13:43:22.733Z,2.88
2022-09-01T13:45:54.439Z,2.33
2022-09-01T13:49:02.355Z,2.60
2022-09-01T13:51:15.437Z,2.95
2022-09-01T13:53:45.405Z,2.80
2022-09-01T13:56:15.753Z,2.70
2022-09-01T13:58:45.136Z,2.60
2022-09-01T14:01:16.868Z,2.58
2022-09-01T14:03:47.827Z,3.10
2022-09-01T14:06:18.090Z,2.90
2022-09-01T14:08:46.237Z,2.50
2022-09-01T14:11:17.952Z,2.83
2022-09-01T14:13:47.878Z,3.00
2022-09-01T14:16:16.336Z,3.05
2022-09-01T14:18:44.318Z,3.20
2022-09-01T14:21:14.728Z,2.77
2022-09-01T14:23:46.175Z,2.80
2022-09-01T14:26:16.647Z,3.20
2022-09-01T14:28:47.585Z,3.00
2022-09-01T14:31:18.766Z,3.10
2022-09-01T14:33:47.050Z,3.00
2022-09-01T14:36:20.323Z,3.05
2022-09-01T14:38:49.146Z,3.28
2022-09-01T14:41:21.917Z,3.23
2022-09-01T14:43:50.017Z,3.20
2022-09-01T14:46:20.272Z,3.40
2022-09-01T14:48:48.927Z,2.97
2022-09-01T14:51:23.681Z,3.13
2022-09-01T14:53:52.620Z,3.28
2022-09-01T14:56:28.012Z,2.53
2022-09-01T14:59:00.684Z,2.78
2022-09-01T15:01:35.135Z,2.50
2022-09-01T15:04:03.994Z,2.60
2022-09-01T15:06:32.225Z,2.80
2022-09-01T15:09:02.239Z,2.70
2022-09-01T15:11:30.359Z,2.75
2022-09-01T15:14:02.167Z,2.60
2022-09-01T15:16:30.350Z,2.10
2022-09-01T15:18:59.655Z,2.22
2022-09-01T15:21:33.778Z,2.40
2022-09-01T15:24:02.685Z,2.50
2022-09-01T15:26:31.799Z,2.20
2022-09-01T15:28:59.796Z,2.45
2022-09-01T15:31:32.829Z,2.38
2022-09-01T15:34:04.979Z,2.42
2022-09-01T15:36:36.589Z,2.20
2022-09-01T15:39:04.692Z,2.05
2022-09-01T15:41:34.610Z,2.60
2022-09-01T15:44:07.236Z,2.20
2022-09-01T15:46:35.588Z,2.60
2022-09-01T15:49:07.570Z,2.20
2022-09-01T15:51:37.914Z,2.25
2022-09-01T15:54:08.952Z,2.83
2022-09-01T15:56:37.684Z,2.63
2022-09-01T15:59:07.404Z,2.50
2022-09-01T16:01:41.826Z,2.40
2022-09-01T16:04:19.052Z,2.65
2022-09-01T16:06:49.478Z,2.53
2022-09-01T16:09:20.888Z,2.65
2022-09-01T16:11:48.977Z,2.50
2022-09-01T16:14:17.114Z,2.60
2022-09-01T16:16:54.565Z,2.60
2022-09-01T16:19:33.322Z,2.45
2022-09-01T16:22:12.037Z,2.30
2022-09-01T16:24:46.250Z,2.17
2022-09-01T16:27:17.950Z,2.47
2022-09-01T16:29:49.808Z,2.80
2022-09-01T16:32:21.347Z,2.57
2022-09-01T16:34:52.355Z,2.50
2022-09-01T16:37:37.077Z,2.42
2022-09-01T16:40:14.028Z,2.60
2022-09-01T16:42:50.430Z,2.40
2022-09-01T16:45:42.741Z,2.47
2022-09-01T16:48:19.631Z,2.92
2022-09-01T16:50:58.465Z,2.67
2022-09-01T16:53:40.821Z,2.63
2022-09-01T16:56:15.220Z,2.50
2022-09-01T16:58:51.155Z,2.80
2022-09-01T17:01:31.085Z,2.95
2022-09-01T17:04:12.015Z,3.15
2022-09-01T17:06:52.247Z,3.80
2022-09-01T17:09:24.983Z,3.42
2022-09-01T17:11:55.296Z,3.70
2022-09-01T17:14:31.981Z,3.95
2022-09-01T17:17:06.668Z,3.60
2022-09-01T17:19:35.373Z,3.53
2022-09-01T17:22:07.581Z,3.35
2022-09-01T17:24:40.147Z,3.42
2022-09-01T17:27:14.999Z,3.20
2022-09-01T17:29:45.928Z,3.20
2022-09-01T17:32:30.928Z,3.20
2022-09-01T17:35:16.021Z,3.30
2022-09-01T17:38:00.804Z,3.40
2022-09-01T17:40:44.878Z,3.17
2022-09-01T17:43:26.301Z,3.40
2022-09-01T17:46:04.451Z,3.22
2022-09-01T17:48:44.508Z,3.15
2022-09-01T17:51:20.543Z,2.72
2022-09-01T17:53:59.352Z,3.30
2022-09-01T17:56:43.011Z,2.80
2022-09-01T17:59:18.624Z,3.20
2022-09-01T18:02:02.853Z,3.25
2022-09-01T18:04:52.275Z,3.03
2022-09-01T18:07:41.220Z,3.20
2022-09-01T18:10:15.443Z,3.10
2022-09-01T18:12:57.170Z,2.90
2022-09-01T18:15:25.452Z,2.78
2022-09-01T18:18:01.277Z,2.77
2022-09-01T18:20:33.838Z,2.90
2022-09-01T18:23:05.651Z,3.15
2022-09-01T18:25:39.317Z,2.80
2022-09-01T18:28:08.323Z,3.30
2022-09-01T18:30:53.248Z,5.72
2022-09-01T18:33:28.480Z,3.83
2022-09-01T18:36:08.145Z,3.53
2022-09-01T18:38:44.112Z,3.40
2022-09-01T18:41:40.456Z,3.85
2022-09-01T18:44:27.704Z,3.67
2022-09-01T18:47:00.871Z,3.90
2022-09-01T18:49:40.587Z,3.55
2022-09-01T18:52:22.034Z,3.45
2022-09-01T18:55:01.772Z,3.93
2022-09-01T18:57:37.156Z,3.47
2022-09-01T19:00:17.841Z,3.35
2022-09-01T19:03:02.797Z,3.72
2022-09-01T19:05:41.890Z,3.40
2022-09-01T19:08:23.945Z,3.75
2022-09-01T19:10:57.961Z,3.80
2022-09-01T19:13:47.309Z,3.78
2022-09-01T19:16:29.573Z,3.47
2022-09-01T19:19:10.324Z,3.40
2022-09-01T19:21:39.307Z,3.63
2022-09-01T19:24:11.586Z,3.77
2022-09-01T19:26:42.071Z,3.40
2022-09-01T19:29:17.505Z,3.67
2022-09-01T19:31:48.302Z,3.47
2022-09-01T19:34:19.226Z,3.80
2022-09-01T19:36:49.841Z,3.63
2022-09-01T19:39:20.524Z,3.63
2022-09-01T19:41:52.301Z,3.60
2022-09-01T19:44:35.284Z,3.83
2022-09-01T19:47:11.767Z,3.80
2022-09-01T19:49:47.545Z,3.90
2022-09-01T19:52:32.370Z,3.90
2022-09-01T19:55:04.670Z,3.97
2022-09-01T19:57:39.819Z,4.05
2022-09-01T20:00:13.717Z,3.90
2022-09-01T20:02:47.978Z,4.10
2022-09-01T20:05:27.229Z,3.90
2022-09-01T20:07:59.518Z,4.03
2022-09-01T20:10:56.264Z,3.90
2022-09-01T20:13:46.331Z,3.73
2022-09-01T20:16:25.410Z,3.50
2022-09-01T20:18:59.361Z,3.90
2022-09-01T20:21:27.569Z,3.90
2022-09-01T20:23:59.056Z,3.70
2022-09-01T20:26:32.816Z,3.80
2022-09-01T20:29:06.862Z,3.75
2022-09-01T20:31:45.386Z,3.85
2022-09-01T20:34:20.236Z,3.90
2022-09-01T20:36:52.189Z,3.80
2022-09-01T20:39:48.689Z,3.90
2022-09-01T20:42:22.134Z,3.70
2022-09-01T20:44:55.887Z,3.70
2022-09-01T20:47:28.525Z,2.55
2022-09-01T20:49:58.733Z,3.30
2022-09-01T20:52:33.548Z,3.20
2022-09-01T20:55:11.576Z,2.60
2022-09-01T20:57:45.662Z,3.05
2022-09-01T21:00:19.616Z,2.85
2022-09-01T21:02:54.957Z,4.37
2022-09-01T21:05:34.018Z,3.70
2022-09-01T21:08:20.283Z,3.08
2022-09-01T21:10:56.545Z,3.40
2022-09-01T21:13:41.702Z,4.07
2022-09-01T21:16:16.355Z,4.40
2022-09-01T21:18:56.823Z,4.75
2022-09-01T21:21:35.063Z,4.60
2022-09-01T21:24:05.878Z,4.80
2022-09-01T21:26:37.704Z,4.32
2022-09-01T21:29:26.539Z,4.30
2022-09-01T21:31:57.304Z,4.50
2022-09-01T21:34:27.085Z,4.47
2022-09-01T21:36:57.241Z,4.30
2022-09-01T21:39:25.097Z,4.75
2022-09-01T21:41:53.051Z,3.88
2022-09-01T21:44:22.285Z,3.83
2022-09-01T21:46:50.468Z,3.22
2022-09-01T21:49:18.427Z,2.72
2022-09-01T21:51:47.714Z,3.10
2022-09-01T21:54:18.116Z,3.83
2022-09-01T21:56:46.103Z,5.30
2022-09-01T21:59:17.079Z,3.85
2022-09-01T22:01:47.648Z,4.40
2022-09-01T22:04:17.272Z,4.00
2022-09-01T22:06:47.619Z,4.00
2022-09-01T22:09:20.665Z,3.83
2022-09-01T22:11:50.126Z,4.57
2022-09-01T22:14:21.637Z,4.57
2022-09-01T22:16:50.349Z,4.20
2022-09-01T22:19:20.219Z,4.70
2022-09-01T22:21:49.880Z,4.70
2022-09-01T22:24:21.131Z,3.22
2022-09-01T22:26:49.523Z,3.58
2022-09-01T22:29:18.552Z,2.97
2022-09-01T22:31:46.531Z,4.65
2022-09-01T22:34:14.436Z,3.60
2022-09-01T22:36:45.396Z,4.75
2022-09-01T22:39:16.664Z,4.90
2022-09-01T22:41:44.654Z,4.90
2022-09-01T22:44:12.912Z,5.00
2022-09-01T22:46:41.220Z,4.90
2022-09-01T22:49:10.533Z,4.70
2022-09-01T22:51:39.642Z,4.75
2022-09-01T22:54:10.700Z,4.60
2022-09-01T22:56:43.531Z,4.00
2022-09-01T22:59:15.089Z,4.80
2022-09-01T23:01:45.817Z,3.75
2022-09-01T23:04:15.289Z,3.73
2022-09-01T23:06:44.896Z,2.50
2022-09-01T23:09:15.750Z,2.83
2022-09-01T23:11:45.916Z,3.22
2022-09-01T23:14:14.042Z,3.50
2022-09-01T23:16:42.030Z,3.85
2022-09-01T23:19:10.113Z,4.23
2022-09-01T23:21:39.307Z,4.10
2022-09-01T23:24:08.249Z,3.40
2022-09-01T23:26:36.795Z,5.00
2022-09-01T23:29:06.890Z,3.67
2022-09-01T23:31:38.995Z,4.50
2022-09-01T23:34:08.982Z,4.32
2022-09-01T23:36:38.088Z,4.63
2022-09-01T23:39:09.363Z,4.13
2022-09-01T23:41:38.381Z,4.72
2022-09-01T23:44:10.520Z,4.77
2022-09-01T23:46:44.316Z,4.25
2022-09-01T23:49:13.708Z,4.32
2022-09-01T23:51:42.177Z,4.87
2022-09-01T23:54:10.926Z,5.05
2022-09-01T23:56:39.721Z,4.80
2022-09-01T23:59:09.730Z,4.63
